Tot'Ma, Russia
Current Conditions -  °F | °C
As of 4:30 PM on Friday 24 Oct 2014 (Local Time) from ULWC Reporting Station
Clear Clear  
Wind Chill: 15°   Ceiling: Unl
Heat Index: 23°   Visibility: 6mi
Dew Point:   Wind: 7mph
Humidity: 46%   Direction: 340°NNW
Pressure: 30.62"   Gusts: NA
Location:  59.88°N, 42.75°E
Report Text: ULWC 241330Z 34003MPS CAVOK M05/M15 Q1037 NOSIG RMK QFE768/1024SC045
Loading
Personal Weather Stations






























Interactive Weather Map
Tropical Storm Tracking
New forecast layout! Learn more

10-Day Weather Forecast

Advertisements
Track Severe Weather on mobile